Time;durP1;ratioP1;P1;durP2;ratioP2;P2;SDS_P1;SDS_P2;PMS_P1;PMS_P2;Temp;Humidity;BMP_temperature;BMP_pressure;BME280_temperature;BME280_humidity;BME280_pressure;Samples;Min_cycle;Max_cycle;Signal;HPM_P1;HPM_P2
2022/01/31 00:01:46;;;;;;;;;;;0.40;99.90;;;;;;4179503;28;19928;-50
2022/01/31 00:03:49;;;;;;;;;;;0.40;99.90;;;;;;4178209;28;20003;-48
2022/01/31 00:05:51;;;;;;;;;;;0.40;99.90;;;;;;4179295;28;20497;-46
2022/01/31 00:07:53;;;;;;;;;;;0.40;99.90;;;;;;4171603;28;19972;-47
2022/01/31 00:09:55;;;;;;;;;;;0.40;99.90;;;;;;4176495;28;19932;-50
2022/01/31 00:12:02;;;;;;;;;;;0.30;99.90;;;;;;4174597;28;20125;-46
2022/01/31 00:14:14;;;;;;;;;;;0.30;99.90;;;;;;4177350;28;19956;-50
2022/01/31 00:16:23;;;;;;;;;;;0.10;99.90;;;;;;4159042;28;20052;-51
2022/01/31 00:18:25;;;;;;;;;;;0.10;99.90;;;;;;4177030;28;19928;-49
2022/01/31 00:20:27;;;;;;;;;;;0.00;99.90;;;;;;4179573;28;19972;-49
2022/01/31 00:22:28;;;;;;;;;;;-0.10;99.90;;;;;;4177888;28;20348;-47
2022/01/31 00:24:31;;;;;;;;;;;-0.10;99.90;;;;;;4176728;28;20019;-47
2022/01/31 00:26:33;;;;;;;;;;;-0.20;99.90;;;;;;4179265;28;20029;-47
2022/01/31 00:28:35;;;;;;;;;;;-0.20;99.90;;;;;;4178009;28;19932;-48
2022/01/31 00:30:37;;;;;;;;;;;-0.20;99.90;;;;;;4177426;28;20035;-50
2022/01/31 00:32:38;;;;;;;;;;;-0.20;99.90;;;;;;4167361;28;20040;-46
2022/01/31 00:34:40;;;;;;;;;;;-0.20;99.90;;;;;;4174758;28;19932;-50
2022/01/31 00:36:42;;;;;;;;;;;-0.10;99.90;;;;;;4177681;28;20007;-49
2022/01/31 00:38:44;;;;;;;;;;;0.00;99.90;;;;;;4160590;28;20427;-48
2022/01/31 00:40:46;;;;;;;;;;;0.10;99.90;;;;;;4174681;28;20015;-45
2022/01/31 00:42:48;;;;;;;;;;;0.20;99.90;;;;;;4164128;28;19964;-49
2022/01/31 00:44:56;;;;;;;;;;;0.20;99.90;;;;;;4168917;28;19925;-47
2022/01/31 00:46:59;;;;;;;;;;;0.10;99.90;;;;;;4171602;28;19971;-47
2022/01/31 00:49:03;;;;;;;;;;;0.10;99.90;;;;;;4178130;28;19936;-48
2022/01/31 00:51:04;;;;;;;;;;;0.10;99.90;;;;;;4160045;28;20047;-50
2022/01/31 00:53:07;;;;;;;;;;;0.10;99.90;;;;;;4173748;28;19928;-46
2022/01/31 00:55:10;;;;;;;;;;;0.10;99.90;;;;;;4178234;28;19929;-48
2022/01/31 00:57:12;;;;;;;;;;;0.10;99.90;;;;;;4168667;28;19964;-49
2022/01/31 00:59:14;;;;;;;;;;;0.00;99.90;;;;;;4170903;28;19960;-49
2022/01/31 01:01:16;;;;;;;;;;;0.10;99.90;;;;;;4178852;28;19929;-48
2022/01/31 01:03:18;;;;;;;;;;;-0.10;99.90;;;;;;4178033;28;19929;-49
2022/01/31 01:05:20;;;;;;;;;;;-0.20;99.90;;;;;;4177689;28;19956;-49
2022/01/31 01:07:22;;;;;;;;;;;-0.20;99.90;;;;;;4168532;28;20017;-48
2022/01/31 01:09:24;;;;;;;;;;;-0.10;99.90;;;;;;4175920;28;20050;-47
2022/01/31 01:11:26;;;;;;;;;;;-0.10;99.90;;;;;;4176320;28;19940;-50
2022/01/31 01:13:28;;;;;;;;;;;0.00;99.90;;;;;;4178523;28;19935;-49
2022/01/31 01:15:30;;;;;;;;;;;0.10;99.90;;;;;;4175672;28;19928;-47
2022/01/31 01:17:33;;;;;;;;;;;0.30;99.90;;;;;;4173982;28;19982;-46
2022/01/31 01:19:35;;;;;;;;;;;0.30;99.90;;;;;;4178925;28;20023;-49
2022/01/31 01:21:37;;;;;;;;;;;0.20;99.90;;;;;;4167845;28;19932;-47
2022/01/31 01:23:39;;;;;;;;;;;0.00;99.90;;;;;;4168766;28;20460;-49
2022/01/31 01:25:42;;;;;;;;;;;-0.10;99.90;;;;;;4178372;28;19925;-50
2022/01/31 01:27:46;;;;;;;;;;;-0.20;99.90;;;;;;4175551;28;19929;-48
2022/01/31 01:29:48;;;;;;;;;;;-0.30;99.90;;;;;;4176720;28;19968;-49
2022/01/31 01:31:51;;;;;;;;;;;-0.50;99.90;;;;;;4176139;28;19952;-45
2022/01/31 01:33:53;;;;;;;;;;;-0.40;99.90;;;;;;4176377;28;19932;-46
2022/01/31 01:35:55;;;;;;;;;;;-0.40;99.90;;;;;;4159088;28;20600;-50
2022/01/31 01:37:59;;;;;;;;;;;-0.50;99.90;;;;;;4177342;28;20611;-46
2022/01/31 01:40:02;;;;;;;;;;;-0.70;99.90;;;;;;4176349;28;20020;-47
2022/01/31 01:42:04;;;;;;;;;;;-0.80;99.90;;;;;;4175839;28;19937;-46
2022/01/31 01:44:06;;;;;;;;;;;-0.80;99.90;;;;;;4178385;28;19924;-48
2022/01/31 01:46:08;;;;;;;;;;;-0.80;99.90;;;;;;4175278;28;19971;-45
2022/01/31 01:48:11;;;;;;;;;;;-0.80;99.90;;;;;;4177687;28;19925;-47
2022/01/31 01:50:13;;;;;;;;;;;-0.80;99.90;;;;;;4177399;28;19972;-46
2022/01/31 01:52:15;;;;;;;;;;;-0.80;99.90;;;;;;4176451;28;20028;-48
2022/01/31 01:54:18;;;;;;;;;;;-0.70;99.90;;;;;;4177190;28;20395;-49
2022/01/31 01:56:20;;;;;;;;;;;-0.70;99.90;;;;;;4177694;28;19972;-50
2022/01/31 01:58:23;;;;;;;;;;;-0.70;99.90;;;;;;4175254;28;19960;-46
2022/01/31 02:00:27;;;;;;;;;;;-0.70;99.90;;;;;;4177842;28;20031;-48
2022/01/31 02:02:29;;;;;;;;;;;-0.80;99.90;;;;;;4176046;28;19929;-49
2022/01/31 02:04:31;;;;;;;;;;;-0.70;99.90;;;;;;4176029;28;19958;-48
2022/01/31 02:06:33;;;;;;;;;;;-0.80;99.90;;;;;;4177617;28;19951;-50
2022/01/31 02:08:42;;;;;;;;;;;-0.80;99.90;;;;;;4166836;28;19925;-49
2022/01/31 02:10:45;;;;;;;;;;;-0.80;99.90;;;;;;4176078;28;19936;-46
2022/01/31 02:12:47;;;;;;;;;;;-0.80;99.90;;;;;;4176009;28;19925;-50
2022/01/31 02:14:49;;;;;;;;;;;-0.90;99.90;;;;;;4176105;28;19929;-46
2022/01/31 02:16:52;;;;;;;;;;;-0.90;99.90;;;;;;4174439;28;19924;-46
2022/01/31 02:18:54;;;;;;;;;;;-0.90;99.90;;;;;;4170514;28;20239;-46
2022/01/31 02:20:57;;;;;;;;;;;-0.90;99.90;;;;;;4176333;28;19925;-50
2022/01/31 02:22:59;;;;;;;;;;;-0.90;99.90;;;;;;4175024;28;20636;-48
2022/01/31 02:25:02;;;;;;;;;;;-1.00;99.90;;;;;;4174435;28;20305;-51
2022/01/31 02:27:04;;;;;;;;;;;-1.20;99.90;;;;;;4174865;28;19936;-46
2022/01/31 02:29:08;;;;;;;;;;;-1.10;99.90;;;;;;4174237;28;20492;-50
2022/01/31 02:31:10;;;;;;;;;;;-1.10;99.90;;;;;;4177173;28;20370;-50
2022/01/31 02:33:12;;;;;;;;;;;-1.10;99.90;;;;;;4176005;28;20032;-46
2022/01/31 02:35:15;;;;;;;;;;;-1.00;99.90;;;;;;4173990;28;20198;-47
2022/01/31 02:37:17;;;;;;;;;;;-1.00;99.90;;;;;;4177907;28;20496;-45
2022/01/31 02:39:19;;;;;;;;;;;-1.00;99.90;;;;;;4174332;28;19978;-46
2022/01/31 02:41:21;;;;;;;;;;;-1.10;99.90;;;;;;4176790;28;19928;-45
2022/01/31 02:43:28;;;;;;;;;;;-1.10;99.90;;;;;;4161188;28;19933;-46
2022/01/31 02:45:30;;;;;;;;;;;-1.30;99.90;;;;;;4175172;28;19982;-47
2022/01/31 02:47:38;;;;;;;;;;;-1.40;99.90;;;;;;4176875;28;20557;-46
2022/01/31 02:49:48;;;;;;;;;;;-1.50;99.90;;;;;;4177410;28;19968;-47
2022/01/31 02:51:52;;;;;;;;;;;-1.50;99.90;;;;;;4173132;28;20032;-47
2022/01/31 02:53:55;;;;;;;;;;;-1.60;99.90;;;;;;4174510;28;20035;-50
2022/01/31 02:55:58;;;;;;;;;;;-1.70;99.90;;;;;;4177255;28;19924;-48
2022/01/31 02:58:00;;;;;;;;;;;-1.70;99.90;;;;;;4176358;28;19936;-49
2022/01/31 03:00:04;;;;;;;;;;;-1.80;99.90;;;;;;4174837;28;20381;-49
2022/01/31 03:02:06;;;;;;;;;;;-1.80;99.90;;;;;;4175951;28;20240;-49
2022/01/31 03:04:08;;;;;;;;;;;-1.70;99.90;;;;;;4174112;28;19929;-49
2022/01/31 03:06:10;;;;;;;;;;;-1.70;99.90;;;;;;4176167;28;19928;-48
2022/01/31 03:08:12;;;;;;;;;;;-1.50;99.90;;;;;;4174008;28;19964;-50
2022/01/31 03:10:14;;;;;;;;;;;-1.70;99.90;;;;;;4173684;28;19968;-49
2022/01/31 03:12:16;;;;;;;;;;;-1.70;99.90;;;;;;4175552;28;19957;-47
2022/01/31 03:14:19;;;;;;;;;;;-1.60;99.90;;;;;;4176373;28;19925;-49
2022/01/31 03:16:21;;;;;;;;;;;-1.50;99.90;;;;;;4174439;28;19929;-49
2022/01/31 03:18:23;;;;;;;;;;;-1.30;99.90;;;;;;4172604;28;19935;-49
2022/01/31 03:20:25;;;;;;;;;;;-1.30;99.90;;;;;;4176582;28;20471;-47
2022/01/31 03:22:27;;;;;;;;;;;-1.20;99.90;;;;;;4174991;28;19929;-49
2022/01/31 03:24:29;;;;;;;;;;;-1.30;99.90;;;;;;4176280;28;20303;-48
2022/01/31 03:26:31;;;;;;;;;;;-1.30;99.90;;;;;;4174237;28;19952;-48
2022/01/31 03:28:32;;;;;;;;;;;-1.40;99.90;;;;;;4153888;28;20464;-49
2022/01/31 03:30:34;;;;;;;;;;;-1.40;99.90;;;;;;4165024;28;19952;-49
2022/01/31 03:32:36;;;;;;;;;;;-1.50;99.90;;;;;;4175511;28;19939;-49
2022/01/31 03:34:38;;;;;;;;;;;-1.50;99.90;;;;;;4170107;28;20646;-49
2022/01/31 03:36:40;;;;;;;;;;;-1.50;99.90;;;;;;4175771;28;19964;-48
2022/01/31 03:38:42;;;;;;;;;;;-1.50;99.90;;;;;;4175982;28;20027;-49
2022/01/31 03:40:44;;;;;;;;;;;-1.50;99.90;;;;;;4176185;28;20039;-47
2022/01/31 03:42:46;;;;;;;;;;;-1.40;99.90;;;;;;4158781;28;19985;-47
2022/01/31 03:44:48;;;;;;;;;;;-1.40;99.90;;;;;;4174930;28;20432;-50
2022/01/31 03:46:50;;;;;;;;;;;-1.40;99.90;;;;;;4173154;28;20019;-46
2022/01/31 03:48:54;;;;;;;;;;;-1.40;99.90;;;;;;4172089;28;19964;-49
2022/01/31 03:50:57;;;;;;;;;;;-1.30;99.90;;;;;;4167017;28;19971;-48
2022/01/31 03:52:59;;;;;;;;;;;-1.20;99.90;;;;;;4175925;28;19925;-50
2022/01/31 03:55:01;;;;;;;;;;;-1.20;99.90;;;;;;4176551;28;20400;-47
2022/01/31 03:57:03;;;;;;;;;;;-1.20;99.90;;;;;;4175388;28;20651;-49
2022/01/31 03:59:05;;;;;;;;;;;-1.10;99.90;;;;;;4174350;28;19932;-49
2022/01/31 04:01:07;;;;;;;;;;;-1.00;99.90;;;;;;4175941;28;20034;-47
2022/01/31 04:03:09;;;;;;;;;;;-0.90;99.90;;;;;;4175163;28;19935;-50
2022/01/31 04:05:11;;;;;;;;;;;-0.90;99.90;;;;;;4174926;28;19925;-50
2022/01/31 04:07:13;;;;;;;;;;;-0.90;99.90;;;;;;4167142;28;20388;-49
2022/01/31 04:09:15;;;;;;;;;;;-0.90;99.90;;;;;;4166449;28;20453;-49
2022/01/31 04:11:18;;;;;;;;;;;-0.90;99.90;;;;;;4172951;28;19924;-48
2022/01/31 04:13:19;;;;;;;;;;;-0.80;99.90;;;;;;4163153;28;19991;-50
2022/01/31 04:15:21;;;;;;;;;;;-0.80;99.90;;;;;;4142405;28;20016;-47
2022/01/31 04:17:25;;;;;;;;;;;-0.70;99.90;;;;;;4174767;28;19925;-48
2022/01/31 04:19:27;;;;;;;;;;;-0.70;99.90;;;;;;4176517;28;20359;-46
2022/01/31 04:21:29;;;;;;;;;;;-0.60;99.90;;;;;;4173846;28;19924;-48
2022/01/31 04:23:31;;;;;;;;;;;-0.50;99.90;;;;;;4174696;28;19929;-48
2022/01/31 04:25:54;;;;;;;;;;;-0.50;99.90;;;;;;4177442;28;19936;-47
2022/01/31 04:28:02;;;;;;;;;;;-0.40;99.90;;;;;;4177916;28;20047;-50
2022/01/31 04:30:06;;;;;;;;;;;-0.40;99.90;;;;;;4177736;28;19990;-48
2022/01/31 04:32:08;;;;;;;;;;;-0.30;99.90;;;;;;4179225;28;20464;-48
2022/01/31 04:34:10;;;;;;;;;;;-0.30;99.90;;;;;;4169242;28;19965;-48
2022/01/31 04:36:15;;;;;;;;;;;-0.20;99.90;;;;;;4169288;28;19964;-47
2022/01/31 04:38:17;;;;;;;;;;;-0.20;99.90;;;;;;4179146;28;19967;-50
2022/01/31 04:40:19;;;;;;;;;;;-0.20;99.90;;;;;;4176872;28;19928;-48
2022/01/31 04:42:23;;;;;;;;;;;-0.10;99.90;;;;;;4177644;28;20444;-50
2022/01/31 04:44:25;;;;;;;;;;;-0.20;99.90;;;;;;4179665;28;19995;-47
2022/01/31 04:46:27;;;;;;;;;;;-0.30;99.90;;;;;;4174354;28;19924;-49
2022/01/31 04:48:29;;;;;;;;;;;-0.40;99.90;;;;;;4177952;28;19924;-48
2022/01/31 04:50:31;;;;;;;;;;;-0.50;99.90;;;;;;4163040;28;20392;-49
2022/01/31 04:52:32;;;;;;;;;;;-0.50;99.90;;;;;;4165555;28;20328;-47
2022/01/31 04:54:34;;;;;;;;;;;-0.40;99.90;;;;;;4172946;28;19932;-46
2022/01/31 04:56:38;;;;;;;;;;;-0.40;99.90;;;;;;4179126;28;19956;-50
2022/01/31 04:58:40;;;;;;;;;;;-0.40;99.90;;;;;;4170731;28;19929;-48
2022/01/31 05:00:42;;;;;;;;;;;-0.30;99.90;;;;;;4166090;28;19991;-46
2022/01/31 05:02:44;;;;;;;;;;;-0.30;99.90;;;;;;4178517;28;19933;-47
2022/01/31 05:04:46;;;;;;;;;;;-0.20;99.90;;;;;;4172700;28;19959;-46
2022/01/31 05:06:49;;;;;;;;;;;-0.10;99.90;;;;;;4178283;28;20456;-48
2022/01/31 05:08:51;;;;;;;;;;;-0.20;99.90;;;;;;4177230;28;19924;-49
2022/01/31 05:10:53;;;;;;;;;;;-0.30;99.90;;;;;;4175689;28;20016;-49
2022/01/31 05:12:55;;;;;;;;;;;-0.40;99.90;;;;;;4178231;28;20016;-46
2022/01/31 05:14:56;;;;;;;;;;;-0.50;99.90;;;;;;4176695;28;19925;-47
2022/01/31 05:16:58;;;;;;;;;;;-0.50;99.90;;;;;;4157828;28;20007;-49
2022/01/31 05:19:04;;;;;;;;;;;-0.50;99.90;;;;;;4172717;28;19925;-50
2022/01/31 05:21:08;;;;;;;;;;;-0.50;99.90;;;;;;4176381;28;19929;-51
2022/01/31 05:23:10;;;;;;;;;;;-0.50;99.90;;;;;;4173674;28;20590;-50
2022/01/31 05:25:12;;;;;;;;;;;-0.50;99.90;;;;;;4176010;28;19972;-50
2022/01/31 05:27:14;;;;;;;;;;;-0.50;99.90;;;;;;4178580;28;19951;-49
2022/01/31 05:29:16;;;;;;;;;;;-0.50;99.90;;;;;;4176928;28;19991;-47
2022/01/31 05:31:19;;;;;;;;;;;-0.50;99.90;;;;;;4178080;28;19991;-47
2022/01/31 05:33:21;;;;;;;;;;;-0.50;99.90;;;;;;4171673;28;20000;-50
2022/01/31 05:35:23;;;;;;;;;;;-0.40;99.90;;;;;;4175709;28;19924;-49
2022/01/31 05:37:25;;;;;;;;;;;-0.40;99.90;;;;;;4177731;28;19944;-48
2022/01/31 05:39:27;;;;;;;;;;;-0.40;99.90;;;;;;4169887;28;19947;-50
2022/01/31 05:41:29;;;;;;;;;;;-0.40;99.90;;;;;;4176251;28;20411;-49
2022/01/31 05:43:31;;;;;;;;;;;-0.30;99.90;;;;;;4177744;28;19968;-47
2022/01/31 05:45:33;;;;;;;;;;;-0.30;99.90;;;;;;4177090;28;20388;-46
2022/01/31 05:47:35;;;;;;;;;;;-0.30;99.90;;;;;;4176398;28;20381;-47
2022/01/31 05:49:38;;;;;;;;;;;-0.20;99.90;;;;;;4169227;28;19982;-49
2022/01/31 05:51:54;;;;;;;;;;;-0.10;99.90;;;;;;4182530;28;19939;-49
2022/01/31 05:53:56;;;;;;;;;;;-0.10;99.90;;;;;;4172595;28;19948;-47
2022/01/31 05:55:58;;;;;;;;;;;0.00;99.90;;;;;;4177778;28;19925;-49
2022/01/31 05:58:00;;;;;;;;;;;0.00;99.90;;;;;;4167159;28;19976;-48
2022/01/31 06:00:06;;;;;;;;;;;-0.10;99.90;;;;;;4175067;28;19925;-50
2022/01/31 06:02:08;;;;;;;;;;;0.00;99.90;;;;;;4177845;28;19943;-48
2022/01/31 06:04:10;;;;;;;;;;;-0.10;99.90;;;;;;4168416;28;20373;-49
2022/01/31 06:06:12;;;;;;;;;;;0.00;99.90;;;;;;4171463;28;19932;-48
2022/01/31 06:08:14;;;;;;;;;;;0.00;99.90;;;;;;4171078;28;20473;-48
2022/01/31 06:10:17;;;;;;;;;;;-0.10;99.90;;;;;;4176419;28;20007;-46
2022/01/31 06:12:19;;;;;;;;;;;-0.10;99.90;;;;;;4175742;28;20471;-49
2022/01/31 06:14:22;;;;;;;;;;;-0.10;99.90;;;;;;4177354;28;20416;-51
2022/01/31 06:16:23;;;;;;;;;;;-0.10;99.90;;;;;;4170187;28;19932;-50
2022/01/31 06:18:25;;;;;;;;;;;0.00;99.90;;;;;;4170193;28;19987;-51
2022/01/31 06:20:28;;;;;;;;;;;0.00;99.90;;;;;;4161771;28;19968;-48
2022/01/31 06:22:29;;;;;;;;;;;0.00;99.90;;;;;;4176437;28;19960;-50
2022/01/31 06:24:31;;;;;;;;;;;0.10;99.90;;;;;;4176727;28;20011;-50
2022/01/31 06:26:34;;;;;;;;;;;0.10;99.90;;;;;;4161593;28;20440;-48
2022/01/31 06:28:36;;;;;;;;;;;0.10;99.90;;;;;;4174533;28;20463;-51
2022/01/31 06:30:37;;;;;;;;;;;0.00;99.90;;;;;;4175352;28;20380;-50
2022/01/31 06:32:39;;;;;;;;;;;0.10;99.90;;;;;;4176675;28;20012;-51
2022/01/31 06:34:41;;;;;;;;;;;0.10;99.90;;;;;;4169285;28;20509;-51
2022/01/31 06:36:43;;;;;;;;;;;0.10;99.90;;;;;;4164786;28;20497;-51
2022/01/31 06:38:45;;;;;;;;;;;0.00;99.90;;;;;;4175657;28;19960;-51
2022/01/31 06:40:47;;;;;;;;;;;0.00;99.90;;;;;;4175464;28;19928;-49
2022/01/31 06:42:49;;;;;;;;;;;0.00;99.90;;;;;;4175650;28;19960;-49
2022/01/31 06:44:51;;;;;;;;;;;-0.10;99.90;;;;;;4177770;28;19925;-51
2022/01/31 06:46:53;;;;;;;;;;;-0.10;99.90;;;;;;4175262;28;19935;-48
2022/01/31 06:48:55;;;;;;;;;;;-0.20;99.90;;;;;;4176862;28;19929;-51
2022/01/31 06:50:57;;;;;;;;;;;-0.20;99.90;;;;;;4175730;28;19963;-51
2022/01/31 06:53:01;;;;;;;;;;;-0.20;99.90;;;;;;4175384;28;19972;-48
2022/01/31 06:55:05;;;;;;;;;;;-0.20;99.90;;;;;;4177243;28;20390;-48
2022/01/31 06:57:07;;;;;;;;;;;-0.10;99.90;;;;;;4175165;28;19968;-49
2022/01/31 06:59:09;;;;;;;;;;;-0.10;99.90;;;;;;4175562;28;20419;-47
2022/01/31 07:01:11;;;;;;;;;;;0.00;99.90;;;;;;4175126;28;19979;-48
2022/01/31 07:03:13;;;;;;;;;;;0.00;99.90;;;;;;4176571;28;20274;-48
2022/01/31 07:05:16;;;;;;;;;;;0.10;99.90;;;;;;4175528;28;19984;-48
2022/01/31 07:07:18;;;;;;;;;;;0.10;99.90;;;;;;4177085;28;19925;-50
2022/01/31 07:09:21;;;;;;;;;;;0.20;99.90;;;;;;4174967;28;19956;-49
2022/01/31 07:11:26;;;;;;;;;;;0.20;99.90;;;;;;4173771;28;19932;-48
2022/01/31 07:15:32;;;;;;;;;;;0.20;99.90;;;;;;4171105;28;20019;-51
2022/01/31 07:17:35;;;;;;;;;;;0.20;99.90;;;;;;4173083;28;20024;-50
2022/01/31 07:19:39;;;;;;;;;;;0.30;99.90;;;;;;4175734;28;19972;-51
2022/01/31 07:21:48;;;;;;;;;;;0.40;99.90;;;;;;4175460;28;19978;-52
2022/01/31 07:24:06;;;;;;;;;;;0.40;99.90;;;;;;4173753;28;19952;-51
2022/01/31 07:26:08;;;;;;;;;;;0.50;99.90;;;;;;4156565;28;19933;-50
2022/01/31 07:28:11;;;;;;;;;;;0.50;99.90;;;;;;4146163;28;19929;-48
2022/01/31 07:30:12;;;;;;;;;;;0.60;99.90;;;;;;4171108;28;19925;-52
2022/01/31 07:32:14;;;;;;;;;;;0.60;99.90;;;;;;4174914;28;20373;-51
2022/01/31 07:34:17;;;;;;;;;;;0.70;99.90;;;;;;4167766;28;19955;-52
2022/01/31 07:36:19;;;;;;;;;;;0.80;99.90;;;;;;4175279;28;20017;-52
2022/01/31 07:38:22;;;;;;;;;;;0.80;99.90;;;;;;4176497;28;19971;-51
2022/01/31 07:40:24;;;;;;;;;;;0.80;99.90;;;;;;4175443;28;19968;-52
2022/01/31 07:42:26;;;;;;;;;;;0.70;99.90;;;;;;4174863;28;19933;-50
2022/01/31 07:44:27;;;;;;;;;;;0.70;99.90;;;;;;4175273;28;19937;-50
2022/01/31 07:46:30;;;;;;;;;;;0.60;99.90;;;;;;4175523;28;19956;-51
2022/01/31 07:48:31;;;;;;;;;;;0.70;99.90;;;;;;4174260;28;19925;-49
2022/01/31 07:50:36;;;;;;;;;;;0.80;99.90;;;;;;4166502;28;20397;-51
2022/01/31 07:52:38;;;;;;;;;;;0.80;99.90;;;;;;4165238;28;20028;-51
2022/01/31 07:54:40;;;;;;;;;;;0.90;99.90;;;;;;4170894;28;20405;-51
2022/01/31 07:56:42;;;;;;;;;;;0.90;99.90;;;;;;4176537;28;19975;-51
2022/01/31 07:58:44;;;;;;;;;;;0.80;99.90;;;;;;4167391;28;20266;-51
2022/01/31 08:00:46;;;;;;;;;;;0.70;99.90;;;;;;4169748;28;19933;-51
2022/01/31 08:02:48;;;;;;;;;;;0.70;99.90;;;;;;4166806;28;19929;-51
2022/01/31 08:04:54;;;;;;;;;;;0.70;99.90;;;;;;4160923;28;19980;-51
2022/01/31 08:06:56;;;;;;;;;;;0.80;99.90;;;;;;4178560;28;20050;-51
2022/01/31 08:08:58;;;;;;;;;;;1.00;99.90;;;;;;4163937;28;19925;-48
2022/01/31 08:11:01;;;;;;;;;;;1.20;99.90;;;;;;4176532;28;19925;-49
2022/01/31 08:13:05;;;;;;;;;;;1.20;99.90;;;;;;4179033;28;19933;-51
2022/01/31 08:15:09;;;;;;;;;;;1.20;99.90;;;;;;4163709;28;20400;-52
2022/01/31 08:17:11;;;;;;;;;;;1.20;99.90;;;;;;4176148;28;19925;-51
2022/01/31 08:19:12;;;;;;;;;;;1.20;99.90;;;;;;4175862;28;19987;-51
2022/01/31 08:21:35;;;;;;;;;;;1.20;99.90;;;;;;4164554;28;20377;-52
2022/01/31 08:23:37;;;;;;;;;;;1.20;99.90;;;;;;4177327;28;19928;-51
2022/01/31 08:25:39;;;;;;;;;;;1.20;99.90;;;;;;4177826;28;19960;-50
2022/01/31 08:27:42;;;;;;;;;;;1.20;99.90;;;;;;4178545;28;20432;-52
2022/01/31 08:29:44;;;;;;;;;;;1.30;99.90;;;;;;4176684;28;19971;-51
2022/01/31 08:31:48;;;;;;;;;;;1.30;99.90;;;;;;4176373;28;19933;-51
2022/01/31 08:34:05;;;;;;;;;;;1.40;99.90;;;;;;4163366;28;19925;-50
2022/01/31 08:36:08;;;;;;;;;;;1.40;99.90;;;;;;4177776;28;19956;-52
2022/01/31 08:38:10;;;;;;;;;;;1.40;99.90;;;;;;4176311;28;19964;-51
2022/01/31 08:40:12;;;;;;;;;;;1.50;99.90;;;;;;4165698;28;19932;-52
2022/01/31 08:42:17;;;;;;;;;;;1.50;99.90;;;;;;4176414;28;20435;-51
2022/01/31 08:44:20;;;;;;;;;;;1.50;99.90;;;;;;4177505;28;19939;-51
2022/01/31 08:46:22;;;;;;;;;;;1.50;99.90;;;;;;4179279;28;20302;-49
2022/01/31 08:48:25;;;;;;;;;;;1.50;99.90;;;;;;4176610;28;19928;-52
2022/01/31 08:50:27;;;;;;;;;;;1.50;99.90;;;;;;4176216;28;19933;-51
2022/01/31 08:52:29;;;;;;;;;;;1.50;99.90;;;;;;4178696;28;20312;-51
2022/01/31 08:54:31;;;;;;;;;;;1.50;99.90;;;;;;4177738;28;19931;-49
2022/01/31 08:56:40;;;;;;;;;;;1.60;99.90;;;;;;4177468;28;19932;-51
2022/01/31 08:58:47;;;;;;;;;;;1.60;99.90;;;;;;4178234;28;19924;-51
2022/01/31 09:00:57;;;;;;;;;;;1.60;99.90;;;;;;4175809;28;19979;-50
2022/01/31 09:05:12;;;;;;;;;;;1.70;99.90;;;;;;4163843;28;19931;-52
2022/01/31 09:07:18;;;;;;;;;;;1.90;99.90;;;;;;4178322;28;20025;-51
2022/01/31 09:09:20;;;;;;;;;;;2.00;99.90;;;;;;4177181;28;19994;-51
2022/01/31 09:11:22;;;;;;;;;;;2.00;99.90;;;;;;4177658;28;20391;-50
2022/01/31 09:13:24;;;;;;;;;;;2.00;99.90;;;;;;4177638;28;20031;-51
2022/01/31 09:15:26;;;;;;;;;;;2.00;99.90;;;;;;4177368;28;19933;-51
2022/01/31 09:17:28;;;;;;;;;;;2.10;99.90;;;;;;4177292;28;20462;-51
2022/01/31 09:19:29;;;;;;;;;;;2.10;99.90;;;;;;4177940;28;19960;-51
2022/01/31 09:21:31;;;;;;;;;;;2.40;99.90;;;;;;4175548;28;19957;-50
2022/01/31 09:23:33;;;;;;;;;;;2.60;99.90;;;;;;4177796;28;19960;-48
2022/01/31 09:25:36;;;;;;;;;;;2.90;99.90;;;;;;4176828;28;20389;-52
2022/01/31 09:27:37;;;;;;;;;;;2.90;99.90;;;;;;4176999;28;19956;-50
2022/01/31 09:29:40;;;;;;;;;;;2.90;99.90;;;;;;4178215;28;19993;-51
2022/01/31 09:31:41;;;;;;;;;;;2.90;99.90;;;;;;4176159;28;20031;-51
2022/01/31 09:33:43;;;;;;;;;;;2.90;99.90;;;;;;4175287;28;20011;-48
2022/01/31 09:35:45;;;;;;;;;;;3.00;99.90;;;;;;4178754;28;19971;-51
2022/01/31 09:37:48;;;;;;;;;;;2.80;99.90;;;;;;4176597;28;19956;-51
2022/01/31 09:39:50;;;;;;;;;;;2.60;99.90;;;;;;4176697;28;19952;-52
2022/01/31 09:41:55;;;;;;;;;;;2.30;99.90;;;;;;4178310;28;19932;-50
2022/01/31 09:44:25;;;;;;;;;;;2.20;99.90;;;;;;4169943;28;20756;-49
2022/01/31 09:50:34;;;;;;;;;;;2.10;99.90;;;;;;4177329;28;19936;-52
2022/01/31 09:52:36;;;;;;;;;;;2.20;99.90;;;;;;4175019;28;20027;-52
2022/01/31 09:54:38;;;;;;;;;;;2.20;99.90;;;;;;4164838;28;19964;-52
2022/01/31 09:56:41;;;;;;;;;;;2.20;99.90;;;;;;4176994;28;20420;-51
2022/01/31 09:58:43;;;;;;;;;;;2.30;99.90;;;;;;4175935;28;19932;-51
2022/01/31 10:00:45;;;;;;;;;;;2.30;99.90;;;;;;4162097;28;19971;-50
2022/01/31 10:03:09;;;;;;;;;;;2.50;99.90;;;;;;4167658;28;20377;-52
2022/01/31 10:05:26;;;;;;;;;;;2.60;99.90;;;;;;4171161;28;19929;-51
2022/01/31 10:07:42;;;;;;;;;;;2.80;99.90;;;;;;4177373;28;20533;-51
2022/01/31 10:09:48;;;;;;;;;;;3.00;99.90;;;;;;4178305;28;19925;-49
2022/01/31 10:11:51;;;;;;;;;;;3.10;99.90;;;;;;4176080;28;19968;-49
2022/01/31 10:16:27;;;;;;;;;;;3.10;99.90;;;;;;4177800;28;19977;-51
2022/01/31 10:18:29;;;;;;;;;;;3.10;99.90;;;;;;4174973;28;19948;-52
2022/01/31 10:20:42;;;;;;;;;;;3.10;99.90;;;;;;4174503;28;20480;-51
2022/01/31 10:22:44;;;;;;;;;;;3.00;99.90;;;;;;4176812;28;19956;-50
2022/01/31 10:24:47;;;;;;;;;;;2.90;99.90;;;;;;4176270;28;20671;-51
2022/01/31 10:26:51;;;;;;;;;;;2.90;99.90;;;;;;4173348;28;19969;-52
2022/01/31 10:29:07;;;;;;;;;;;2.90;99.90;;;;;;4162096;28;20825;-52
2022/01/31 10:31:16;;;;;;;;;;;3.00;99.90;;;;;;4176844;28;20015;-50
2022/01/31 10:33:18;;;;;;;;;;;3.00;99.90;;;;;;4170099;28;19925;-51
2022/01/31 10:35:22;;;;;;;;;;;3.10;99.90;;;;;;4175422;28;19929;-49
2022/01/31 10:37:26;;;;;;;;;;;3.20;99.90;;;;;;4163228;28;19929;-50
2022/01/31 10:56:10;;;;;;;;;;;5.10;99.90;;;;;;4173501;28;19964;-49
2022/01/31 10:58:14;;;;;;;;;;;5.10;99.90;;;;;;4171580;28;20626;-50
2022/01/31 11:00:17;;;;;;;;;;;5.10;99.90;;;;;;4175124;28;20368;-51
2022/01/31 11:02:21;;;;;;;;;;;5.10;99.90;;;;;;4171439;28;19929;-50
2022/01/31 11:04:24;;;;;;;;;;;5.10;99.90;;;;;;4173024;28;19992;-52
2022/01/31 11:06:26;;;;;;;;;;;5.10;99.90;;;;;;4173860;28;20397;-51
2022/01/31 11:08:28;;;;;;;;;;;5.10;99.90;;;;;;4174784;28;20383;-51
2022/01/31 11:10:30;;;;;;;;;;;5.10;99.90;;;;;;4171221;28;19972;-49
2022/01/31 11:12:32;;;;;;;;;;;5.10;99.90;;;;;;4175263;28;20019;-51
2022/01/31 11:14:38;;;;;;;;;;;5.20;99.90;;;;;;4170220;28;19968;-50
2022/01/31 11:16:42;;;;;;;;;;;5.30;99.90;;;;;;4174394;28;19954;-52
2022/01/31 11:18:44;;;;;;;;;;;5.30;99.90;;;;;;4174580;28;24157;-50
2022/01/31 11:20:49;;;;;;;;;;;5.40;99.90;;;;;;4176077;28;19935;-51
2022/01/31 11:22:56;;;;;;;;;;;5.40;99.90;;;;;;4171118;28;20431;-51
2022/01/31 11:25:05;;;;;;;;;;;5.40;99.90;;;;;;4167288;28;19929;-51
2022/01/31 11:27:09;;;;;;;;;;;5.40;99.90;;;;;;4167747;28;19933;-52
2022/01/31 11:29:11;;;;;;;;;;;5.40;99.90;;;;;;4172217;28;19932;-52
2022/01/31 11:31:13;;;;;;;;;;;5.50;99.90;;;;;;4173546;28;19928;-49
2022/01/31 11:33:15;;;;;;;;;;;5.50;99.90;;;;;;4173510;28;19956;-49
2022/01/31 11:35:17;;;;;;;;;;;5.60;99.90;;;;;;4176916;28;19972;-49
2022/01/31 11:37:21;;;;;;;;;;;5.60;99.90;;;;;;4176986;28;19960;-53
2022/01/31 11:39:23;;;;;;;;;;;5.60;99.90;;;;;;4169267;28;20401;-51
2022/01/31 11:41:25;;;;;;;;;;;5.60;99.90;;;;;;4176161;28;20557;-52
2022/01/31 11:43:28;;;;;;;;;;;5.60;99.90;;;;;;4178594;28;19991;-52
2022/01/31 11:45:39;;;;;;;;;;;5.60;99.90;;;;;;4160237;28;19936;-50
2022/01/31 11:47:43;;;;;;;;;;;5.60;99.90;;;;;;4178248;28;19972;-51
2022/01/31 11:49:55;;;;;;;;;;;5.70;99.90;;;;;;4168916;28;19971;-52
2022/01/31 11:52:00;;;;;;;;;;;5.70;99.90;;;;;;4176925;28;19928;-52
2022/01/31 11:54:06;;;;;;;;;;;5.70;99.90;;;;;;4178165;28;20031;-51
2022/01/31 11:56:14;;;;;;;;;;;5.80;99.90;;;;;;4180589;28;20144;-49
2022/01/31 11:58:17;;;;;;;;;;;5.80;99.90;;;;;;4169545;28;20404;-51
2022/01/31 12:00:21;;;;;;;;;;;5.80;99.90;;;;;;4175898;28;20053;-50
2022/01/31 12:02:24;;;;;;;;;;;5.90;99.90;;;;;;4179548;28;19974;-51
2022/01/31 12:04:31;;;;;;;;;;;5.90;99.90;;;;;;4177735;28;19935;-52
2022/01/31 12:06:33;;;;;;;;;;;5.90;99.90;;;;;;4178050;28;19924;-48
2022/01/31 12:08:38;;;;;;;;;;;5.90;99.90;;;;;;4166211;28;19928;-49
2022/01/31 12:10:44;;;;;;;;;;;6.00;99.90;;;;;;4178984;28;20408;-52
2022/01/31 12:12:57;;;;;;;;;;;6.00;99.90;;;;;;4175556;28;20722;-50
2022/01/31 12:15:21;;;;;;;;;;;6.00;99.90;;;;;;4190294;28;20420;-51
2022/01/31 12:18:02;;;;;;;;;;;6.00;99.90;;;;;;4173283;28;20007;-51
2022/01/31 12:20:14;;;;;;;;;;;6.00;99.90;;;;;;4177964;28;20522;-50
2022/01/31 12:22:36;;;;;;;;;;;6.00;99.90;;;;;;4176235;28;20384;-51
2022/01/31 12:24:38;;;;;;;;;;;6.00;99.90;;;;;;4179768;28;19924;-48
2022/01/31 12:26:52;;;;;;;;;;;6.10;99.90;;;;;;4167617;28;19929;-51
2022/01/31 12:28:55;;;;;;;;;;;6.10;99.90;;;;;;4174389;28;20381;-52
2022/01/31 12:30:57;;;;;;;;;;;6.10;99.90;;;;;;4179138;28;20301;-51
2022/01/31 12:32:59;;;;;;;;;;;6.10;99.90;;;;;;4165991;28;20346;-52